sensor_id;sensor_type;location;lat;lon;timestamp;P1;durP1;ratioP1;P2;durP2;ratioP2
60614;SDS011;46444;45.590;5.284;2023-05-07T00:00:07;1.10;;;0.98;;
60614;SDS011;46444;45.590;5.284;2023-05-07T00:02:34;1.95;;;1.10;;
60614;SDS011;46444;45.590;5.284;2023-05-07T00:04:59;1.75;;;1.20;;
60614;SDS011;46444;45.590;5.284;2023-05-07T00:07:27;1.42;;;0.90;;
60614;SDS011;46444;45.590;5.284;2023-05-07T00:09:52;2.53;;;1.00;;
60614;SDS011;46444;45.590;5.284;2023-05-07T00:12:17;1.10;;;1.00;;
60614;SDS011;46444;45.590;5.284;2023-05-07T00:14:43;2.25;;;1.20;;
60614;SDS011;46444;45.590;5.284;2023-05-07T00:17:08;1.25;;;1.10;;
60614;SDS011;46444;45.590;5.284;2023-05-07T00:19:33;1.70;;;1.02;;
60614;SDS011;46444;45.590;5.284;2023-05-07T00:21:59;1.40;;;0.93;;
60614;SDS011;46444;45.590;5.284;2023-05-07T00:24:24;3.97;;;0.90;;
60614;SDS011;46444;45.590;5.284;2023-05-07T00:26:50;2.38;;;1.08;;
60614;SDS011;46444;45.590;5.284;2023-05-07T00:29:15;1.30;;;1.00;;
60614;SDS011;46444;45.590;5.284;2023-05-07T00:31:40;3.55;;;1.02;;
60614;SDS011;46444;45.590;5.284;2023-05-07T00:34:06;3.80;;;1.13;;
60614;SDS011;46444;45.590;5.284;2023-05-07T00:36:31;2.83;;;1.05;;
60614;SDS011;46444;45.590;5.284;2023-05-07T00:38:58;2.80;;;0.90;;
60614;SDS011;46444;45.590;5.284;2023-05-07T00:41:25;1.23;;;1.13;;
60614;SDS011;46444;45.590;5.284;2023-05-07T00:43:50;3.17;;;1.02;;
60614;SDS011;46444;45.590;5.284;2023-05-07T00:46:16;2.15;;;1.00;;
60614;SDS011;46444;45.590;5.284;2023-05-07T00:48:42;2.03;;;0.98;;
60614;SDS011;46444;45.590;5.284;2023-05-07T00:51:09;0.98;;;0.80;;
60614;SDS011;46444;45.590;5.284;2023-05-07T00:53:36;2.53;;;0.88;;
60614;SDS011;46444;45.590;5.284;2023-05-07T00:56:01;2.03;;;1.00;;
60614;SDS011;46444;45.590;5.284;2023-05-07T00:58:27;1.42;;;1.05;;
60614;SDS011;46444;45.590;5.284;2023-05-07T01:00:52;2.47;;;1.00;;
60614;SDS011;46444;45.590;5.284;2023-05-07T01:03:18;1.58;;;0.82;;
60614;SDS011;46444;45.590;5.284;2023-05-07T01:05:43;1.85;;;1.02;;
60614;SDS011;46444;45.590;5.284;2023-05-07T01:08:11;1.58;;;0.98;;
60614;SDS011;46444;45.590;5.284;2023-05-07T01:10:36;3.95;;;1.15;;
60614;SDS011;46444;45.590;5.284;2023-05-07T01:13:02;2.38;;;1.38;;
60614;SDS011;46444;45.590;5.284;2023-05-07T01:15:28;3.10;;;1.15;;
60614;SDS011;46444;45.590;5.284;2023-05-07T01:17:56;2.08;;;1.17;;
60614;SDS011;46444;45.590;5.284;2023-05-07T01:20:22;1.10;;;0.90;;
60614;SDS011;46444;45.590;5.284;2023-05-07T01:22:48;2.03;;;1.15;;
60614;SDS011;46444;45.590;5.284;2023-05-07T01:25:14;1.27;;;0.98;;
60614;SDS011;46444;45.590;5.284;2023-05-07T01:27:41;1.15;;;1.00;;
60614;SDS011;46444;45.590;5.284;2023-05-07T01:30:06;2.50;;;1.08;;
60614;SDS011;46444;45.590;5.284;2023-05-07T01:32:37;0.95;;;0.93;;
60614;SDS011;46444;45.590;5.284;2023-05-07T01:35:07;1.38;;;1.13;;
60614;SDS011;46444;45.590;5.284;2023-05-07T01:37:36;3.17;;;1.33;;
60614;SDS011;46444;45.590;5.284;2023-05-07T01:40:02;1.00;;;0.90;;
60614;SDS011;46444;45.590;5.284;2023-05-07T01:42:28;2.63;;;1.10;;
60614;SDS011;46444;45.590;5.284;2023-05-07T01:44:54;1.73;;;1.30;;
60614;SDS011;46444;45.590;5.284;2023-05-07T01:47:20;2.20;;;1.10;;
60614;SDS011;46444;45.590;5.284;2023-05-07T01:49:46;2.92;;;1.45;;
60614;SDS011;46444;45.590;5.284;2023-05-07T01:52:12;3.47;;;1.30;;
60614;SDS011;46444;45.590;5.284;2023-05-07T01:54:38;2.05;;;1.20;;
60614;SDS011;46444;45.590;5.284;2023-05-07T01:57:03;2.55;;;1.25;;
60614;SDS011;46444;45.590;5.284;2023-05-07T01:59:29;4.07;;;1.13;;
60614;SDS011;46444;45.590;5.284;2023-05-07T02:01:54;2.70;;;1.58;;
60614;SDS011;46444;45.590;5.284;2023-05-07T02:04:19;1.65;;;1.20;;
60614;SDS011;46444;45.590;5.284;2023-05-07T02:06:45;1.33;;;1.05;;
60614;SDS011;46444;45.590;5.284;2023-05-07T02:09:10;1.13;;;1.00;;
60614;SDS011;46444;45.590;5.284;2023-05-07T02:11:36;2.63;;;1.08;;
60614;SDS011;46444;45.590;5.284;2023-05-07T02:14:01;1.50;;;1.30;;
60614;SDS011;46444;45.590;5.284;2023-05-07T02:16:26;1.88;;;1.38;;
60614;SDS011;46444;45.590;5.284;2023-05-07T02:18:52;1.90;;;1.20;;
60614;SDS011;46444;45.590;5.284;2023-05-07T02:21:17;1.67;;;1.30;;
60614;SDS011;46444;45.590;5.284;2023-05-07T02:23:42;1.48;;;1.30;;
60614;SDS011;46444;45.590;5.284;2023-05-07T02:26:08;2.63;;;1.23;;
60614;SDS011;46444;45.590;5.284;2023-05-07T02:28:33;1.75;;;1.55;;
60614;SDS011;46444;45.590;5.284;2023-05-07T02:31:02;3.88;;;1.50;;
60614;SDS011;46444;45.590;5.284;2023-05-07T02:33:27;1.80;;;1.30;;
60614;SDS011;46444;45.590;5.284;2023-05-07T02:35:53;2.75;;;2.00;;
60614;SDS011;46444;45.590;5.284;2023-05-07T02:38:18;2.00;;;1.80;;
60614;SDS011;46444;45.590;5.284;2023-05-07T02:40:43;3.45;;;1.90;;
60614;SDS011;46444;45.590;5.284;2023-05-07T02:43:09;2.00;;;1.90;;
60614;SDS011;46444;45.590;5.284;2023-05-07T02:45:34;2.50;;;1.77;;
60614;SDS011;46444;45.590;5.284;2023-05-07T02:48:01;2.47;;;2.28;;
60614;SDS011;46444;45.590;5.284;2023-05-07T02:50:26;3.95;;;2.08;;
60614;SDS011;46444;45.590;5.284;2023-05-07T02:52:52;2.10;;;1.90;;
60614;SDS011;46444;45.590;5.284;2023-05-07T02:55:17;2.35;;;2.08;;
60614;SDS011;46444;45.590;5.284;2023-05-07T02:57:44;2.28;;;2.15;;
60614;SDS011;46444;45.590;5.284;2023-05-07T03:00:10;2.60;;;2.40;;
60614;SDS011;46444;45.590;5.284;2023-05-07T03:02:36;2.90;;;2.30;;
60614;SDS011;46444;45.590;5.284;2023-05-07T03:05:02;2.83;;;2.63;;
60614;SDS011;46444;45.590;5.284;2023-05-07T03:07:28;2.95;;;2.17;;
60614;SDS011;46444;45.590;5.284;2023-05-07T03:09:53;2.90;;;2.80;;
60614;SDS011;46444;45.590;5.284;2023-05-07T03:12:19;3.78;;;3.58;;
60614;SDS011;46444;45.590;5.284;2023-05-07T03:14:45;3.70;;;3.50;;
60614;SDS011;46444;45.590;5.284;2023-05-07T03:17:10;4.03;;;3.72;;
60614;SDS011;46444;45.590;5.284;2023-05-07T03:19:36;4.57;;;4.37;;
60614;SDS011;46444;45.590;5.284;2023-05-07T03:22:01;5.85;;;5.50;;
60614;SDS011;46444;45.590;5.284;2023-05-07T03:24:26;7.43;;;4.72;;
60614;SDS011;46444;45.590;5.284;2023-05-07T03:26:52;5.15;;;4.63;;
60614;SDS011;46444;45.590;5.284;2023-05-07T03:29:17;5.75;;;5.45;;
60614;SDS011;46444;45.590;5.284;2023-05-07T03:31:42;5.73;;;5.43;;
60614;SDS011;46444;45.590;5.284;2023-05-07T03:34:08;5.25;;;4.85;;
60614;SDS011;46444;45.590;5.284;2023-05-07T03:36:33;7.10;;;6.50;;
60614;SDS011;46444;45.590;5.284;2023-05-07T03:38:58;6.80;;;6.25;;
60614;SDS011;46444;45.590;5.284;2023-05-07T03:41:23;7.30;;;6.88;;
60614;SDS011;46444;45.590;5.284;2023-05-07T03:43:50;7.57;;;7.18;;
60614;SDS011;46444;45.590;5.284;2023-05-07T03:46:15;7.70;;;7.28;;
60614;SDS011;46444;45.590;5.284;2023-05-07T03:48:41;7.07;;;6.63;;
60614;SDS011;46444;45.590;5.284;2023-05-07T03:51:06;6.53;;;6.03;;
60614;SDS011;46444;45.590;5.284;2023-05-07T03:53:32;7.50;;;7.05;;
60614;SDS011;46444;45.590;5.284;2023-05-07T03:55:57;7.35;;;6.82;;
60614;SDS011;46444;45.590;5.284;2023-05-07T03:58:22;7.75;;;7.25;;
60614;SDS011;46444;45.590;5.284;2023-05-07T04:00:47;8.00;;;7.32;;
60614;SDS011;46444;45.590;5.284;2023-05-07T04:03:13;7.07;;;6.65;;
60614;SDS011;46444;45.590;5.284;2023-05-07T04:05:39;7.05;;;6.45;;
60614;SDS011;46444;45.590;5.284;2023-05-07T04:08:04;9.27;;;8.55;;
60614;SDS011;46444;45.590;5.284;2023-05-07T04:10:30;7.57;;;7.07;;
60614;SDS011;46444;45.590;5.284;2023-05-07T04:12:56;5.57;;;5.28;;
60614;SDS011;46444;45.590;5.284;2023-05-07T04:15:22;7.65;;;7.25;;
60614;SDS011;46444;45.590;5.284;2023-05-07T04:17:48;8.77;;;8.10;;
60614;SDS011;46444;45.590;5.284;2023-05-07T04:20:16;9.02;;;8.48;;
60614;SDS011;46444;45.590;5.284;2023-05-07T04:22:42;8.60;;;8.10;;
60614;SDS011;46444;45.590;5.284;2023-05-07T04:25:08;8.98;;;8.38;;
60614;SDS011;46444;45.590;5.284;2023-05-07T04:27:34;7.88;;;7.45;;
60614;SDS011;46444;45.590;5.284;2023-05-07T04:30:00;10.13;;;9.52;;
60614;SDS011;46444;45.590;5.284;2023-05-07T04:32:27;8.35;;;7.85;;
60614;SDS011;46444;45.590;5.284;2023-05-07T04:34:54;10.00;;;9.23;;
60614;SDS011;46444;45.590;5.284;2023-05-07T04:37:20;10.07;;;9.25;;
60614;SDS011;46444;45.590;5.284;2023-05-07T04:39:45;13.52;;;12.20;;
60614;SDS011;46444;45.590;5.284;2023-05-07T04:42:14;10.05;;;9.45;;
60614;SDS011;46444;45.590;5.284;2023-05-07T04:44:40;11.07;;;10.45;;
60614;SDS011;46444;45.590;5.284;2023-05-07T04:47:05;11.40;;;10.80;;
60614;SDS011;46444;45.590;5.284;2023-05-07T04:49:31;9.55;;;8.98;;
60614;SDS011;46444;45.590;5.284;2023-05-07T04:51:56;8.50;;;8.00;;
60614;SDS011;46444;45.590;5.284;2023-05-07T04:54:22;11.25;;;10.40;;
60614;SDS011;46444;45.590;5.284;2023-05-07T04:56:47;8.18;;;7.68;;
60614;SDS011;46444;45.590;5.284;2023-05-07T04:59:12;10.68;;;9.98;;
60614;SDS011;46444;45.590;5.284;2023-05-07T05:01:38;10.10;;;9.55;;
60614;SDS011;46444;45.590;5.284;2023-05-07T05:04:03;8.30;;;7.70;;
60614;SDS011;46444;45.590;5.284;2023-05-07T05:06:28;8.25;;;7.65;;
60614;SDS011;46444;45.590;5.284;2023-05-07T05:08:54;7.32;;;6.82;;
60614;SDS011;46444;45.590;5.284;2023-05-07T05:11:19;6.18;;;5.68;;
60614;SDS011;46444;45.590;5.284;2023-05-07T05:13:45;6.82;;;5.82;;
60614;SDS011;46444;45.590;5.284;2023-05-07T05:16:13;5.43;;;4.93;;
60614;SDS011;46444;45.590;5.284;2023-05-07T05:18:38;5.28;;;3.40;;
60614;SDS011;46444;45.590;5.284;2023-05-07T05:21:03;5.68;;;4.63;;
60614;SDS011;46444;45.590;5.284;2023-05-07T05:23:29;4.93;;;4.53;;
60614;SDS011;46444;45.590;5.284;2023-05-07T05:25:55;5.40;;;5.10;;
60614;SDS011;46444;45.590;5.284;2023-05-07T05:28:22;4.80;;;3.92;;
60614;SDS011;46444;45.590;5.284;2023-05-07T05:30:48;4.00;;;3.40;;
60614;SDS011;46444;45.590;5.284;2023-05-07T05:33:13;5.25;;;4.15;;
60614;SDS011;46444;45.590;5.284;2023-05-07T05:35:39;7.03;;;6.53;;
60614;SDS011;46444;45.590;5.284;2023-05-07T05:38:04;2.97;;;2.78;;
60614;SDS011;46444;45.590;5.284;2023-05-07T05:40:30;3.83;;;3.53;;
60614;SDS011;46444;45.590;5.284;2023-05-07T05:42:55;6.47;;;3.38;;
60614;SDS011;46444;45.590;5.284;2023-05-07T05:45:21;5.75;;;5.35;;
60614;SDS011;46444;45.590;5.284;2023-05-07T05:47:46;6.45;;;4.20;;
60614;SDS011;46444;45.590;5.284;2023-05-07T05:50:11;4.93;;;4.63;;
60614;SDS011;46444;45.590;5.284;2023-05-07T05:52:37;8.90;;;7.47;;
60614;SDS011;46444;45.590;5.284;2023-05-07T05:55:02;3.72;;;3.42;;
60614;SDS011;46444;45.590;5.284;2023-05-07T05:57:28;3.03;;;2.72;;
60614;SDS011;46444;45.590;5.284;2023-05-07T05:59:53;3.53;;;3.17;;
60614;SDS011;46444;45.590;5.284;2023-05-07T06:02:19;4.75;;;4.30;;
60614;SDS011;46444;45.590;5.284;2023-05-07T06:04:45;3.30;;;3.00;;
60614;SDS011;46444;45.590;5.284;2023-05-07T06:07:10;4.47;;;3.80;;
60614;SDS011;46444;45.590;5.284;2023-05-07T06:09:36;3.95;;;3.65;;
60614;SDS011;46444;45.590;5.284;2023-05-07T06:12:01;3.28;;;2.80;;
60614;SDS011;46444;45.590;5.284;2023-05-07T06:14:27;3.20;;;2.85;;
60614;SDS011;46444;45.590;5.284;2023-05-07T06:16:52;3.10;;;2.63;;
60614;SDS011;46444;45.590;5.284;2023-05-07T06:19:17;4.50;;;2.70;;
60614;SDS011;46444;45.590;5.284;2023-05-07T06:21:48;2.85;;;2.40;;
60614;SDS011;46444;45.590;5.284;2023-05-07T06:24:13;3.63;;;3.30;;
60614;SDS011;46444;45.590;5.284;2023-05-07T06:26:38;4.32;;;4.03;;
60614;SDS011;46444;45.590;5.284;2023-05-07T06:29:04;5.70;;;5.30;;
60614;SDS011;46444;45.590;5.284;2023-05-07T06:31:31;6.03;;;5.63;;
60614;SDS011;46444;45.590;5.284;2023-05-07T06:33:57;3.65;;;3.30;;
60614;SDS011;46444;45.590;5.284;2023-05-07T06:36:22;3.47;;;3.17;;
60614;SDS011;46444;45.590;5.284;2023-05-07T06:38:48;3.22;;;2.92;;
60614;SDS011;46444;45.590;5.284;2023-05-07T06:41:13;3.08;;;1.92;;
60614;SDS011;46444;45.590;5.284;2023-05-07T06:43:38;2.30;;;2.07;;
60614;SDS011;46444;45.590;5.284;2023-05-07T06:46:04;2.25;;;2.15;;
60614;SDS011;46444;45.590;5.284;2023-05-07T06:48:30;2.83;;;1.85;;
60614;SDS011;46444;45.590;5.284;2023-05-07T06:50:55;1.50;;;1.40;;
60614;SDS011;46444;45.590;5.284;2023-05-07T06:53:22;4.00;;;1.90;;
60614;SDS011;46444;45.590;5.284;2023-05-07T06:55:48;2.60;;;1.85;;
60614;SDS011;46444;45.590;5.284;2023-05-07T06:58:13;2.90;;;2.03;;
60614;SDS011;46444;45.590;5.284;2023-05-07T07:00:39;3.25;;;2.17;;
60614;SDS011;46444;45.590;5.284;2023-05-07T07:03:05;2.47;;;1.67;;
60614;SDS011;46444;45.590;5.284;2023-05-07T07:05:31;1.60;;;1.50;;
60614;SDS011;46444;45.590;5.284;2023-05-07T07:07:56;3.13;;;1.70;;
60614;SDS011;46444;45.590;5.284;2023-05-07T07:10:22;2.28;;;1.20;;
60614;SDS011;46444;45.590;5.284;2023-05-07T07:12:48;2.60;;;1.05;;
60614;SDS011;46444;45.590;5.284;2023-05-07T07:15:14;2.33;;;1.55;;
60614;SDS011;46444;45.590;5.284;2023-05-07T07:17:40;1.50;;;1.30;;
60614;SDS011;46444;45.590;5.284;2023-05-07T07:20:05;3.78;;;1.60;;
60614;SDS011;46444;45.590;5.284;2023-05-07T07:22:31;3.80;;;1.58;;
60614;SDS011;46444;45.590;5.284;2023-05-07T07:24:56;3.10;;;1.48;;
60614;SDS011;46444;45.590;5.284;2023-05-07T07:27:22;1.73;;;1.13;;
60614;SDS011;46444;45.590;5.284;2023-05-07T07:29:47;2.83;;;1.30;;
60614;SDS011;46444;45.590;5.284;2023-05-07T07:32:12;1.48;;;1.20;;
60614;SDS011;46444;45.590;5.284;2023-05-07T07:34:38;3.53;;;1.63;;
60614;SDS011;46444;45.590;5.284;2023-05-07T07:37:03;3.40;;;1.30;;
60614;SDS011;46444;45.590;5.284;2023-05-07T07:39:31;3.20;;;1.80;;
60614;SDS011;46444;45.590;5.284;2023-05-07T07:41:57;2.53;;;1.90;;
60614;SDS011;46444;45.590;5.284;2023-05-07T07:44:22;3.43;;;1.70;;
60614;SDS011;46444;45.590;5.284;2023-05-07T07:46:47;3.05;;;1.52;;
60614;SDS011;46444;45.590;5.284;2023-05-07T07:49:13;2.05;;;1.40;;
60614;SDS011;46444;45.590;5.284;2023-05-07T07:51:39;2.08;;;1.35;;
60614;SDS011;46444;45.590;5.284;2023-05-07T07:54:04;1.60;;;1.40;;
60614;SDS011;46444;45.590;5.284;2023-05-07T07:56:29;1.38;;;1.20;;
60614;SDS011;46444;45.590;5.284;2023-05-07T07:58:54;2.70;;;1.80;;
60614;SDS011;46444;45.590;5.284;2023-05-07T08:01:20;2.67;;;1.57;;
60614;SDS011;46444;45.590;5.284;2023-05-07T08:03:45;2.28;;;1.90;;
60614;SDS011;46444;45.590;5.284;2023-05-07T08:06:10;2.35;;;1.45;;
60614;SDS011;46444;45.590;5.284;2023-05-07T08:08:36;3.40;;;1.30;;
60614;SDS011;46444;45.590;5.284;2023-05-07T08:11:01;3.15;;;1.70;;
60614;SDS011;46444;45.590;5.284;2023-05-07T08:13:26;2.72;;;1.60;;
60614;SDS011;46444;45.590;5.284;2023-05-07T08:15:52;2.72;;;1.52;;
60614;SDS011;46444;45.590;5.284;2023-05-07T08:18:17;3.70;;;1.50;;
60614;SDS011;46444;45.590;5.284;2023-05-07T08:20:43;3.25;;;1.83;;
60614;SDS011;46444;45.590;5.284;2023-05-07T08:23:08;2.83;;;1.40;;
60614;SDS011;46444;45.590;5.284;2023-05-07T08:25:33;3.72;;;1.80;;
60614;SDS011;46444;45.590;5.284;2023-05-07T08:28:00;2.03;;;1.70;;
60614;SDS011;46444;45.590;5.284;2023-05-07T08:30:25;2.35;;;1.70;;
60614;SDS011;46444;45.590;5.284;2023-05-07T08:32:51;2.50;;;1.73;;
60614;SDS011;46444;45.590;5.284;2023-05-07T08:35:16;2.47;;;1.63;;
60614;SDS011;46444;45.590;5.284;2023-05-07T08:37:41;6.45;;;1.95;;
60614;SDS011;46444;45.590;5.284;2023-05-07T08:40:07;13.98;;;2.38;;
60614;SDS011;46444;45.590;5.284;2023-05-07T08:42:35;4.32;;;1.95;;
60614;SDS011;46444;45.590;5.284;2023-05-07T08:45:02;4.10;;;1.60;;
60614;SDS011;46444;45.590;5.284;2023-05-07T08:47:32;1.35;;;1.20;;
60614;SDS011;46444;45.590;5.284;2023-05-07T08:50:03;1.50;;;1.40;;
60614;SDS011;46444;45.590;5.284;2023-05-07T08:52:30;5.05;;;1.42;;
60614;SDS011;46444;45.590;5.284;2023-05-07T08:54:56;1.50;;;1.40;;
60614;SDS011;46444;45.590;5.284;2023-05-07T08:57:21;2.20;;;1.27;;
60614;SDS011;46444;45.590;5.284;2023-05-07T08:59:48;4.22;;;2.00;;
60614;SDS011;46444;45.590;5.284;2023-05-07T09:02:13;2.45;;;1.80;;
60614;SDS011;46444;45.590;5.284;2023-05-07T09:04:39;1.95;;;1.83;;
60614;SDS011;46444;45.590;5.284;2023-05-07T09:07:04;7.80;;;2.20;;
60614;SDS011;46444;45.590;5.284;2023-05-07T09:09:31;6.88;;;4.15;;
60614;SDS011;46444;45.590;5.284;2023-05-07T09:11:57;3.40;;;3.10;;
60614;SDS011;46444;45.590;5.284;2023-05-07T09:14:27;3.45;;;2.95;;
60614;SDS011;46444;45.590;5.284;2023-05-07T09:16:53;5.43;;;2.85;;
60614;SDS011;46444;45.590;5.284;2023-05-07T09:19:22;6.22;;;2.85;;
60614;SDS011;46444;45.590;5.284;2023-05-07T09:21:49;3.13;;;2.42;;
60614;SDS011;46444;45.590;5.284;2023-05-07T09:24:15;6.15;;;5.65;;
60614;SDS011;46444;45.590;5.284;2023-05-07T09:26:41;6.18;;;5.68;;
60614;SDS011;46444;45.590;5.284;2023-05-07T09:29:07;6.65;;;6.05;;
60614;SDS011;46444;45.590;5.284;2023-05-07T09:31:37;3.80;;;3.50;;
60614;SDS011;46444;45.590;5.284;2023-05-07T09:34:04;4.30;;;4.00;;
60614;SDS011;46444;45.590;5.284;2023-05-07T09:36:31;4.82;;;4.53;;
60614;SDS011;46444;45.590;5.284;2023-05-07T09:38:58;5.72;;;5.10;;
60614;SDS011;46444;45.590;5.284;2023-05-07T09:41:24;7.50;;;7.00;;
60614;SDS011;46444;45.590;5.284;2023-05-07T09:43:53;9.27;;;8.77;;
60614;SDS011;46444;45.590;5.284;2023-05-07T09:46:19;13.05;;;12.25;;
60614;SDS011;46444;45.590;5.284;2023-05-07T09:48:50;7.10;;;6.50;;
60614;SDS011;46444;45.590;5.284;2023-05-07T09:51:21;7.22;;;6.72;;
60614;SDS011;46444;45.590;5.284;2023-05-07T09:53:52;8.10;;;7.57;;
60614;SDS011;46444;45.590;5.284;2023-05-07T09:56:18;8.02;;;7.50;;
60614;SDS011;46444;45.590;5.284;2023-05-07T09:58:45;8.82;;;8.15;;
60614;SDS011;46444;45.590;5.284;2023-05-07T10:01:11;8.20;;;7.75;;
60614;SDS011;46444;45.590;5.284;2023-05-07T10:03:37;9.40;;;8.77;;
60614;SDS011;46444;45.590;5.284;2023-05-07T10:06:05;8.85;;;8.38;;
60614;SDS011;46444;45.590;5.284;2023-05-07T10:08:32;11.15;;;10.10;;
60614;SDS011;46444;45.590;5.284;2023-05-07T10:10:59;14.73;;;13.93;;
60614;SDS011;46444;45.590;5.284;2023-05-07T10:13:24;26.90;;;25.35;;
60614;SDS011;46444;45.590;5.284;2023-05-07T10:15:50;15.07;;;14.30;;
60614;SDS011;46444;45.590;5.284;2023-05-07T10:18:16;13.50;;;12.77;;
60614;SDS011;46444;45.590;5.284;2023-05-07T10:20:41;26.00;;;24.60;;
60614;SDS011;46444;45.590;5.284;2023-05-07T10:23:09;20.30;;;19.17;;
60614;SDS011;46444;45.590;5.284;2023-05-07T10:25:38;11.48;;;10.82;;
60614;SDS011;46444;45.590;5.284;2023-05-07T10:28:05;51.83;;;49.33;;
60614;SDS011;46444;45.590;5.284;2023-05-07T10:30:50;23.60;;;22.10;;
60614;SDS011;46444;45.590;5.284;2023-05-07T10:33:27;14.77;;;14.07;;
60614;SDS011;46444;45.590;5.284;2023-05-07T10:35:57;17.02;;;15.75;;
60614;SDS011;46444;45.590;5.284;2023-05-07T10:38:25;19.35;;;18.23;;
60614;SDS011;46444;45.590;5.284;2023-05-07T10:40:52;33.47;;;31.85;;
60614;SDS011;46444;45.590;5.284;2023-05-07T10:43:18;14.73;;;14.00;;
60614;SDS011;46444;45.590;5.284;2023-05-07T10:45:43;21.73;;;20.48;;
60614;SDS011;46444;45.590;5.284;2023-05-07T10:48:29;21.25;;;20.05;;
60614;SDS011;46444;45.590;5.284;2023-05-07T10:51:40;21.05;;;19.80;;
60614;SDS011;46444;45.590;5.284;2023-05-07T10:53:45;16.33;;;15.48;;
60614;SDS011;46444;45.590;5.284;2023-05-07T10:58:41;13.27;;;12.43;;
60614;SDS011;46444;45.590;5.284;2023-05-07T11:01:07;11.85;;;11.13;;
60614;SDS011;46444;45.590;5.284;2023-05-07T11:03:32;13.20;;;12.50;;
60614;SDS011;46444;45.590;5.284;2023-05-07T11:06:14;19.77;;;18.55;;
60614;SDS011;46444;45.590;5.284;2023-05-07T11:11:18;10.60;;;9.90;;
60614;SDS011;46444;45.590;5.284;2023-05-07T11:13:45;11.60;;;10.90;;
60614;SDS011;46444;45.590;5.284;2023-05-07T11:16:21;13.07;;;12.18;;
60614;SDS011;46444;45.590;5.284;2023-05-07T11:21:31;35.78;;;33.95;;
60614;SDS011;46444;45.590;5.284;2023-05-07T11:24:10;44.22;;;42.08;;
60614;SDS011;46444;45.590;5.284;2023-05-07T11:26:45;25.38;;;23.63;;
60614;SDS011;46444;45.590;5.284;2023-05-07T11:29:18;16.92;;;16.00;;
60614;SDS011;46444;45.590;5.284;2023-05-07T11:31:48;39.20;;;37.17;;
60614;SDS011;46444;45.590;5.284;2023-05-07T11:34:21;31.65;;;30.10;;
60614;SDS011;46444;45.590;5.284;2023-05-07T11:36:50;24.95;;;23.67;;
60614;SDS011;46444;45.590;5.284;2023-05-07T11:39:30;49.78;;;46.70;;
60614;SDS011;46444;45.590;5.284;2023-05-07T11:41:57;16.17;;;15.13;;
60614;SDS011;46444;45.590;5.284;2023-05-07T11:44:23;12.40;;;11.65;;
60614;SDS011;46444;45.590;5.284;2023-05-07T11:46:49;18.10;;;17.05;;
60614;SDS011;46444;45.590;5.284;2023-05-07T11:49:14;20.70;;;19.08;;
60614;SDS011;46444;45.590;5.284;2023-05-07T11:51:40;17.80;;;16.50;;
60614;SDS011;46444;45.590;5.284;2023-05-07T11:54:07;15.25;;;14.23;;
60614;SDS011;46444;45.590;5.284;2023-05-07T11:56:34;10.93;;;10.32;;
60614;SDS011;46444;45.590;5.284;2023-05-07T11:59:04;14.47;;;13.57;;
60614;SDS011;46444;45.590;5.284;2023-05-07T12:01:29;13.88;;;12.98;;
60614;SDS011;46444;45.590;5.284;2023-05-07T12:03:54;15.77;;;14.90;;
60614;SDS011;46444;45.590;5.284;2023-05-07T12:06:20;11.17;;;10.57;;
60614;SDS011;46444;45.590;5.284;2023-05-07T12:08:45;13.60;;;12.70;;
60614;SDS011;46444;45.590;5.284;2023-05-07T12:11:15;24.52;;;23.27;;
60614;SDS011;46444;45.590;5.284;2023-05-07T12:13:46;12.45;;;11.63;;
60614;SDS011;46444;45.590;5.284;2023-05-07T12:16:12;18.85;;;17.83;;
60614;SDS011;46444;45.590;5.284;2023-05-07T12:18:37;51.08;;;48.60;;
60614;SDS011;46444;45.590;5.284;2023-05-07T12:21:03;52.60;;;49.83;;
60614;SDS011;46444;45.590;5.284;2023-05-07T12:23:29;14.05;;;13.23;;
60614;SDS011;46444;45.590;5.284;2023-05-07T12:25:55;15.38;;;14.48;;
60614;SDS011;46444;45.590;5.284;2023-05-07T12:28:20;11.52;;;10.82;;
60614;SDS011;46444;45.590;5.284;2023-05-07T12:30:48;13.35;;;12.65;;
60614;SDS011;46444;45.590;5.284;2023-05-07T12:33:18;16.10;;;15.00;;
60614;SDS011;46444;45.590;5.284;2023-05-07T12:35:48;19.08;;;17.88;;
60614;SDS011;46444;45.590;5.284;2023-05-07T12:38:14;14.25;;;13.43;;
60614;SDS011;46444;45.590;5.284;2023-05-07T12:40:43;15.90;;;15.00;;
60614;SDS011;46444;45.590;5.284;2023-05-07T12:43:19;16.77;;;15.77;;
60614;SDS011;46444;45.590;5.284;2023-05-07T12:45:48;19.42;;;18.42;;
60614;SDS011;46444;45.590;5.284;2023-05-07T12:48:15;15.20;;;14.30;;
60614;SDS011;46444;45.590;5.284;2023-05-07T12:50:40;13.23;;;12.48;;
60614;SDS011;46444;45.590;5.284;2023-05-07T12:53:06;18.52;;;17.55;;
60614;SDS011;46444;45.590;5.284;2023-05-07T12:55:46;11.85;;;10.95;;
60614;SDS011;46444;45.590;5.284;2023-05-07T13:00:42;16.58;;;15.68;;
60614;SDS011;46444;45.590;5.284;2023-05-07T13:03:08;15.15;;;14.43;;
60614;SDS011;46444;45.590;5.284;2023-05-07T13:05:34;16.67;;;15.57;;
60614;SDS011;46444;45.590;5.284;2023-05-07T13:07:59;18.73;;;17.70;;
60614;SDS011;46444;45.590;5.284;2023-05-07T13:10:27;17.38;;;16.48;;
60614;SDS011;46444;45.590;5.284;2023-05-07T13:12:53;15.00;;;14.23;;
60614;SDS011;46444;45.590;5.284;2023-05-07T13:15:19;23.15;;;22.00;;
60614;SDS011;46444;45.590;5.284;2023-05-07T13:17:44;25.25;;;24.00;;
60614;SDS011;46444;45.590;5.284;2023-05-07T13:20:10;15.35;;;14.55;;
60614;SDS011;46444;45.590;5.284;2023-05-07T13:22:36;18.35;;;17.40;;
60614;SDS011;46444;45.590;5.284;2023-05-07T13:25:02;18.75;;;17.75;;
60614;SDS011;46444;45.590;5.284;2023-05-07T13:27:27;20.35;;;19.15;;
60614;SDS011;46444;45.590;5.284;2023-05-07T13:29:52;22.08;;;21.00;;
60614;SDS011;46444;45.590;5.284;2023-05-07T13:32:18;14.75;;;13.98;;
60614;SDS011;46444;45.590;5.284;2023-05-07T13:34:43;18.30;;;17.40;;
60614;SDS011;46444;45.590;5.284;2023-05-07T13:37:08;22.60;;;21.52;;
60614;SDS011;46444;45.590;5.284;2023-05-07T13:39:34;27.38;;;25.98;;
60614;SDS011;46444;45.590;5.284;2023-05-07T13:41:59;20.02;;;18.88;;
60614;SDS011;46444;45.590;5.284;2023-05-07T13:44:25;27.23;;;25.95;;
60614;SDS011;46444;45.590;5.284;2023-05-07T13:46:51;14.30;;;13.48;;
60614;SDS011;46444;45.590;5.284;2023-05-07T13:49:16;13.68;;;12.80;;
60614;SDS011;46444;45.590;5.284;2023-05-07T13:51:42;12.73;;;11.90;;
60614;SDS011;46444;45.590;5.284;2023-05-07T13:54:07;16.93;;;16.07;;
60614;SDS011;46444;45.590;5.284;2023-05-07T13:56:32;19.00;;;18.05;;
60614;SDS011;46444;45.590;5.284;2023-05-07T13:58:58;18.65;;;17.52;;
60614;SDS011;46444;45.590;5.284;2023-05-07T14:01:23;20.45;;;19.30;;
60614;SDS011;46444;45.590;5.284;2023-05-07T14:03:49;32.42;;;30.70;;
60614;SDS011;46444;45.590;5.284;2023-05-07T14:06:14;54.55;;;51.90;;
60614;SDS011;46444;45.590;5.284;2023-05-07T14:08:40;60.17;;;57.17;;
60614;SDS011;46444;45.590;5.284;2023-05-07T14:11:05;37.13;;;34.90;;
60614;SDS011;46444;45.590;5.284;2023-05-07T14:13:31;69.07;;;65.70;;
60614;SDS011;46444;45.590;5.284;2023-05-07T14:15:56;20.88;;;19.52;;
60614;SDS011;46444;45.590;5.284;2023-05-07T14:18:22;16.10;;;15.27;;
60614;SDS011;46444;45.590;5.284;2023-05-07T14:20:48;19.73;;;18.70;;
60614;SDS011;46444;45.590;5.284;2023-05-07T14:23:14;21.20;;;20.00;;
60614;SDS011;46444;45.590;5.284;2023-05-07T14:25:40;9.35;;;8.70;;
60614;SDS011;46444;45.590;5.284;2023-05-07T14:28:06;16.92;;;15.40;;
60614;SDS011;46444;45.590;5.284;2023-05-07T14:30:31;15.73;;;14.88;;
60614;SDS011;46444;45.590;5.284;2023-05-07T14:32:57;14.30;;;13.50;;
60614;SDS011;46444;45.590;5.284;2023-05-07T14:35:22;14.70;;;13.88;;
60614;SDS011;46444;45.590;5.284;2023-05-07T14:37:47;12.95;;;12.25;;
60614;SDS011;46444;45.590;5.284;2023-05-07T14:40:14;13.13;;;12.43;;
60614;SDS011;46444;45.590;5.284;2023-05-07T14:42:40;15.97;;;15.07;;